createdAt,value
2019-04-23T00:00:21.924Z,48.50
2019-04-23T00:02:58.883Z,50.50
2019-04-23T00:08:11.475Z,49.60
2019-04-23T00:10:34.835Z,49.90
2019-04-23T00:13:09.052Z,50.40
2019-04-23T00:15:51.720Z,50.50
2019-04-23T00:21:18.489Z,49.00
2019-04-23T00:23:59.550Z,49.80
2019-04-23T00:26:24.120Z,49.60
2019-04-23T00:33:55.604Z,51.60
2019-04-23T00:36:25.886Z,51.30
2019-04-23T00:38:50.129Z,51.80
2019-04-23T00:41:25.089Z,49.90
2019-04-23T00:44:01.606Z,49.50
2019-04-23T00:46:35.311Z,50.00
2019-04-23T00:49:05.885Z,49.70
2019-04-23T00:51:38.006Z,50.60
2019-04-23T00:54:06.440Z,50.30
2019-04-23T00:59:12.457Z,50.30
2019-04-23T01:01:50.233Z,51.80
2019-04-23T01:04:39.721Z,52.90
2019-04-23T01:07:24.304Z,51.60
2019-04-23T01:10:00.875Z,52.00
2019-04-23T01:12:42.074Z,52.30
2019-04-23T01:15:04.730Z,52.10
2019-04-23T01:20:10.926Z,52.30
2019-04-23T01:22:31.735Z,51.90
2019-04-23T01:25:42.678Z,52.50
2019-04-23T01:33:47.070Z,52.90
2019-04-23T01:39:32.895Z,53.10
2019-04-23T01:42:08.481Z,53.40
2019-04-23T01:44:42.447Z,53.40
2019-04-23T01:47:11.582Z,53.20
2019-04-23T01:49:44.953Z,53.60
2019-04-23T01:52:27.810Z,53.10
2019-04-23T01:54:52.014Z,53.20
2019-04-23T01:57:23.293Z,53.80
2019-04-23T01:59:58.432Z,53.20
2019-04-23T02:02:31.000Z,53.30
2019-04-23T02:05:09.002Z,53.60
2019-04-23T02:07:44.283Z,54.50
2019-04-23T02:12:55.745Z,54.60
2019-04-23T02:18:31.853Z,54.30
2019-04-23T02:21:07.793Z,54.40
2019-04-23T02:23:50.866Z,55.00
2019-04-23T02:26:25.769Z,54.30
2019-04-23T02:28:53.268Z,54.10
2019-04-23T02:36:29.234Z,54.50
2019-04-23T02:44:38.982Z,55.20
2019-04-23T02:47:17.475Z,56.00
2019-04-23T02:50:02.880Z,55.40
2019-04-23T02:57:26.308Z,57.10
2019-04-23T03:00:07.867Z,56.10
2019-04-23T03:02:56.555Z,56.80
2019-04-23T03:05:11.553Z,55.60
2019-04-23T03:07:47.505Z,56.20
2019-04-23T03:10:08.235Z,55.90
2019-04-23T03:15:45.283Z,56.10
2019-04-23T03:21:42.598Z,56.40
2019-04-23T03:26:51.588Z,56.80
2019-04-23T03:29:10.575Z,56.80
2019-04-23T03:33:55.508Z,56.10
2019-04-23T03:39:18.746Z,56.80
2019-04-23T03:47:13.881Z,56.50
2019-04-23T03:49:48.530Z,57.00
2019-04-23T03:54:45.557Z,57.20
2019-04-23T03:59:55.236Z,57.80
2019-04-23T04:04:45.173Z,56.20
2019-04-23T04:07:55.860Z,57.70
2019-04-23T04:09:51.807Z,57.40
2019-04-23T04:12:40.008Z,57.50
2019-04-23T04:15:41.312Z,57.50
2019-04-23T04:20:24.517Z,58.50
2019-04-23T04:23:16.755Z,59.70
2019-04-23T04:25:39.246Z,58.10
2019-04-23T04:28:17.614Z,59.10
2019-04-23T04:30:54.227Z,58.70
2019-04-23T04:36:09.496Z,58.60
2019-04-23T04:43:31.770Z,59.00
2019-04-23T04:46:21.254Z,59.40
2019-04-23T04:48:32.988Z,58.60
2019-04-23T04:51:13.271Z,58.90
2019-04-23T04:56:16.030Z,58.10
2019-04-23T04:58:40.715Z,58.30
2019-04-23T05:01:08.275Z,59.00
2019-04-23T05:03:36.279Z,58.80
2019-04-23T05:08:48.909Z,57.80
2019-04-23T05:11:17.354Z,58.70
2019-04-23T05:16:13.914Z,57.70
2019-04-23T05:21:26.791Z,57.60
2019-04-23T05:24:23.224Z,58.50
2019-04-23T05:26:33.346Z,57.50
2019-04-23T05:31:42.738Z,57.30
2019-04-23T05:34:11.190Z,56.70
2019-04-23T05:36:52.069Z,56.40
2019-04-23T05:39:21.524Z,56.80
2019-04-23T05:41:42.024Z,56.30
2019-04-23T05:46:45.922Z,54.80
2019-04-23T05:51:54.284Z,55.50
2019-04-23T05:54:20.782Z,55.60
2019-04-23T05:56:46.891Z,56.10
2019-04-23T06:01:55.629Z,57.00
2019-04-23T06:04:19.548Z,56.20
2019-04-23T06:11:52.659Z,55.60
2019-04-23T06:14:19.050Z,55.70
2019-04-23T06:16:51.146Z,55.60
2019-04-23T06:24:33.001Z,54.80
2019-04-23T06:27:08.719Z,54.40
2019-04-23T06:29:39.384Z,54.70
2019-04-23T06:32:06.400Z,53.90
2019-04-23T06:34:36.378Z,53.90
2019-04-23T06:37:11.033Z,54.50
2019-04-23T06:39:41.283Z,53.80
2019-04-23T06:42:23.494Z,54.10
2019-04-23T06:44:45.737Z,54.80
2019-04-23T06:47:16.800Z,54.00
2019-04-23T06:52:21.712Z,53.80
2019-04-23T06:57:41.037Z,52.90
2019-04-23T06:59:54.752Z,53.30
2019-04-23T07:05:16.182Z,52.60
2019-04-23T07:12:59.359Z,52.10
2019-04-23T07:17:55.559Z,51.80
2019-04-23T07:20:37.775Z,51.60
2019-04-23T07:23:05.026Z,50.90
2019-04-23T07:25:35.878Z,51.00
2019-04-23T07:28:08.669Z,51.00
2019-04-23T07:30:33.171Z,50.30
2019-04-23T07:33:07.351Z,51.20
2019-04-23T07:35:41.926Z,51.00
2019-04-23T07:38:33.604Z,50.70
2019-04-23T07:40:46.649Z,50.30
2019-04-23T07:44:02.707Z,49.90
2019-04-23T07:46:38.323Z,49.60
2019-04-23T07:48:56.477Z,48.70
2019-04-23T07:51:29.337Z,47.90
2019-04-23T07:54:03.769Z,46.70
2019-04-23T07:56:31.513Z,46.00
2019-04-23T07:59:07.353Z,45.30
2019-04-23T08:01:34.789Z,44.40
2019-04-23T08:04:01.333Z,45.40
2019-04-23T08:06:31.990Z,44.80
2019-04-23T08:09:03.673Z,45.10
2019-04-23T08:11:49.292Z,44.90
2019-04-23T08:14:06.530Z,45.10
2019-04-23T08:16:43.862Z,45.40
2019-04-23T08:19:08.072Z,44.90
2019-04-23T08:21:32.063Z,43.60
2019-04-23T08:24:14.367Z,43.90
2019-04-23T08:27:16.370Z,44.10
2019-04-23T08:29:56.064Z,44.00
2019-04-23T08:32:19.556Z,43.90
2019-04-23T08:34:52.346Z,43.00
2019-04-23T08:37:48.900Z,44.20
2019-04-23T08:39:52.515Z,44.20
2019-04-23T08:42:42.843Z,43.80
2019-04-23T08:47:40.275Z,44.20
2019-04-23T08:50:15.457Z,43.80
2019-04-23T08:52:43.028Z,43.20
2019-04-23T08:55:13.815Z,43.40
2019-04-23T08:57:43.171Z,42.50
2019-04-23T09:00:18.693Z,42.50
2019-04-23T09:03:11.225Z,42.40
2019-04-23T09:05:52.645Z,43.10
2019-04-23T09:08:19.218Z,42.80
2019-04-23T09:10:51.773Z,42.00
2019-04-23T09:13:40.209Z,42.00
2019-04-23T09:15:51.096Z,41.60
2019-04-23T09:18:22.975Z,40.20
2019-04-23T09:20:49.666Z,41.40
2019-04-23T09:23:30.886Z,40.60
2019-04-23T09:25:53.543Z,40.60
2019-04-23T09:28:33.216Z,39.60
2019-04-23T09:31:08.649Z,39.80
2019-04-23T09:33:45.194Z,40.60
2019-04-23T09:36:08.260Z,38.70
2019-04-23T09:38:39.622Z,40.10
2019-04-23T09:44:09.464Z,39.60
2019-04-23T09:46:48.304Z,40.80
2019-04-23T09:49:20.711Z,38.70
2019-04-23T09:51:52.961Z,38.90
2019-04-23T09:57:17.662Z,36.60
2019-04-23T09:59:48.950Z,37.90
2019-04-23T10:02:20.065Z,39.00
2019-04-23T10:04:50.568Z,37.60
2019-04-23T10:07:16.409Z,37.40
2019-04-23T10:09:40.536Z,36.40
2019-04-23T10:12:09.515Z,36.40
2019-04-23T10:14:38.754Z,36.10
2019-04-23T10:17:08.447Z,35.30
2019-04-23T10:19:37.035Z,35.50
2019-04-23T10:22:07.108Z,36.60
2019-04-23T10:24:36.985Z,36.80
2019-04-23T10:27:08.484Z,35.30
2019-04-23T10:29:38.592Z,34.60
2019-04-23T10:32:07.514Z,34.70
2019-04-23T10:34:48.139Z,32.00
2019-04-23T10:37:07.271Z,34.00
2019-04-23T10:39:39.844Z,34.50
2019-04-23T10:42:09.950Z,32.70
2019-04-23T10:44:46.631Z,33.20
2019-04-23T10:48:06.721Z,33.60
2019-04-23T10:53:18.775Z,32.00
2019-04-23T10:55:52.771Z,33.30
2019-04-23T10:58:16.884Z,32.40
2019-04-23T11:06:17.658Z,33.80
2019-04-23T11:11:14.606Z,33.50
2019-04-23T11:14:04.925Z,31.20
2019-04-23T11:16:55.683Z,31.80
2019-04-23T11:21:37.910Z,31.10
2019-04-23T11:24:12.697Z,31.00
2019-04-23T11:29:28.020Z,29.30
2019-04-23T11:31:58.356Z,28.70
2019-04-23T11:37:35.749Z,30.90
2019-04-23T11:39:53.914Z,30.70
2019-04-23T11:42:19.484Z,29.80
2019-04-23T11:50:43.106Z,29.90
2019-04-23T11:55:29.021Z,28.80
2019-04-23T12:01:36.148Z,29.00
2019-04-23T12:03:14.161Z,31.30
2019-04-23T12:08:52.000Z,28.90
2019-04-23T12:14:57.693Z,27.70
2019-04-23T12:22:29.829Z,28.00
2019-04-23T12:25:36.727Z,28.50
2019-04-23T12:27:59.228Z,29.10
2019-04-23T12:30:39.637Z,27.90
2019-04-23T12:33:03.264Z,28.10
2019-04-23T12:35:33.894Z,28.60
2019-04-23T12:43:12.718Z,29.00
2019-04-23T12:45:37.531Z,28.50
2019-04-23T12:48:23.818Z,28.80
2019-04-23T12:50:50.171Z,29.80
2019-04-23T12:53:10.531Z,30.00
2019-04-23T12:55:40.042Z,31.20
2019-04-23T13:00:40.017Z,30.10
2019-04-23T13:03:10.423Z,31.80
2019-04-23T13:05:33.986Z,31.00
2019-04-23T13:08:29.018Z,32.10
2019-04-23T13:10:41.837Z,32.00
2019-04-23T13:16:14.615Z,31.80
2019-04-23T13:18:26.981Z,31.60
2019-04-23T13:20:43.614Z,31.60
2019-04-23T13:23:21.929Z,31.80
2019-04-23T13:28:27.683Z,31.20
2019-04-23T13:33:37.942Z,30.70
2019-04-23T13:41:08.403Z,31.40
2019-04-23T13:43:36.063Z,31.20
2019-04-23T13:49:08.033Z,30.10
2019-04-23T13:51:43.494Z,31.40
2019-04-23T13:59:16.633Z,29.50
2019-04-23T14:01:54.439Z,30.70
2019-04-23T14:04:21.320Z,30.70
2019-04-23T14:06:46.411Z,30.30
2019-04-23T14:09:19.952Z,29.00
2019-04-23T14:11:38.904Z,29.20
2019-04-23T14:14:36.331Z,29.20
2019-04-23T14:17:04.507Z,29.20
2019-04-23T14:19:16.501Z,28.70
2019-04-23T14:22:12.894Z,30.00
2019-04-23T14:24:32.599Z,30.30
2019-04-23T14:26:58.197Z,30.60
2019-04-23T14:29:31.788Z,32.20
2019-04-23T14:32:07.313Z,33.30
2019-04-23T14:34:30.463Z,35.50
2019-04-23T14:37:07.480Z,34.90
2019-04-23T14:39:35.992Z,34.10
2019-04-23T14:42:06.917Z,35.30
2019-04-23T14:44:55.646Z,35.60
2019-04-23T14:47:09.055Z,35.90
2019-04-23T14:49:54.042Z,37.10
2019-04-23T14:52:09.335Z,37.40
2019-04-23T14:55:19.162Z,37.60
2019-04-23T14:59:41.714Z,37.90
2019-04-23T15:02:13.772Z,37.60
2019-04-23T15:04:43.801Z,38.60
2019-04-23T15:07:15.686Z,39.40
2019-04-23T15:09:53.188Z,39.10
2019-04-23T15:17:12.786Z,38.10
2019-04-23T15:22:13.526Z,38.00
2019-04-23T15:25:13.691Z,39.20
2019-04-23T15:27:59.983Z,38.70
2019-04-23T15:29:30.246Z,38.60
2019-04-23T15:32:34.875Z,39.10
2019-04-23T15:34:37.583Z,40.90
2019-04-23T15:37:41.421Z,40.80
2019-04-23T15:39:47.575Z,40.80
2019-04-23T15:44:48.743Z,41.50
2019-04-23T15:47:20.084Z,42.40
2019-04-23T15:49:56.730Z,42.80
2019-04-23T15:52:39.254Z,42.80
2019-04-23T15:54:48.335Z,42.80
2019-04-23T15:57:18.162Z,42.80
2019-04-23T15:59:48.316Z,42.30
2019-04-23T16:01:48.242Z,42.70
2019-04-23T16:04:19.688Z,42.00
2019-04-23T16:06:47.851Z,42.60
2019-04-23T16:09:46.186Z,42.40
2019-04-23T16:12:13.171Z,42.60
2019-04-23T16:14:53.674Z,43.30
2019-04-23T16:17:18.749Z,42.80
2019-04-23T16:20:00.235Z,43.30
2019-04-23T16:22:36.615Z,43.20
2019-04-23T16:25:03.283Z,43.30
2019-04-23T16:27:16.991Z,42.70
2019-04-23T16:30:09.694Z,43.60
2019-04-23T16:35:08.827Z,45.70
2019-04-23T16:37:26.488Z,44.60
2019-04-23T16:40:01.463Z,44.40
2019-04-23T16:42:30.927Z,44.70
2019-04-23T16:45:05.971Z,44.20
2019-04-23T16:47:28.187Z,45.30
2019-04-23T16:50:05.086Z,44.90
2019-04-23T16:52:27.390Z,44.80
2019-04-23T16:55:01.988Z,45.30
2019-04-23T16:57:35.468Z,45.00
2019-04-23T17:02:24.514Z,45.40
2019-04-23T17:05:04.751Z,46.10
2019-04-23T17:07:24.260Z,45.80
2019-04-23T17:12:19.924Z,45.90
2019-04-23T17:15:03.388Z,45.90
2019-04-23T17:17:25.133Z,46.20
2019-04-23T17:20:14.831Z,46.80
2019-04-23T17:22:24.599Z,46.60
2019-04-23T17:25:05.553Z,48.10
2019-04-23T17:27:34.861Z,47.90
2019-04-23T17:30:06.794Z,48.60
2019-04-23T17:32:28.074Z,48.20
2019-04-23T17:35:11.318Z,47.50
2019-04-23T17:37:53.752Z,47.10
2019-04-23T17:40:15.721Z,47.80
2019-04-23T17:42:39.838Z,47.70
2019-04-23T17:45:25.420Z,47.80
2019-04-23T17:47:55.285Z,48.90
2019-04-23T17:50:27.018Z,48.40
2019-04-23T17:52:54.587Z,48.50
2019-04-23T17:55:15.470Z,48.60
2019-04-23T17:57:45.754Z,48.50
2019-04-23T18:02:55.673Z,51.00
2019-04-23T18:07:59.423Z,49.80
2019-04-23T18:12:51.446Z,50.50
2019-04-23T18:15:15.887Z,51.30
2019-04-23T18:17:59.871Z,51.10
2019-04-23T18:22:53.974Z,49.40
2019-04-23T18:25:37.390Z,51.10
2019-04-23T18:28:00.592Z,50.00
2019-04-23T18:30:40.987Z,50.10
2019-04-23T18:35:44.698Z,50.60
2019-04-23T18:38:26.103Z,50.60
2019-04-23T18:41:02.362Z,50.40
2019-04-23T18:46:02.605Z,51.60
2019-04-23T18:51:01.146Z,51.20
2019-04-23T18:58:34.453Z,51.90
2019-04-23T19:03:48.160Z,52.00
2019-04-23T19:06:29.425Z,51.80
2019-04-23T19:09:09.986Z,51.90
2019-04-23T19:11:53.504Z,52.70
2019-04-23T19:14:09.913Z,53.10
2019-04-23T19:19:09.597Z,53.10
2019-04-23T19:22:07.147Z,53.90
2019-04-23T19:27:03.544Z,53.00
2019-04-23T19:31:52.801Z,53.90
2019-04-23T19:34:29.845Z,53.70
2019-04-23T19:41:59.481Z,53.80
2019-04-23T19:44:24.497Z,53.40
2019-04-23T19:51:56.741Z,52.90
2019-04-23T19:56:55.106Z,55.10
2019-04-23T19:59:31.646Z,55.80
2019-04-23T20:02:03.330Z,55.80
2019-04-23T20:04:36.664Z,56.10
2019-04-23T20:11:55.992Z,55.30
2019-04-23T20:17:20.835Z,54.80
2019-04-23T20:19:31.670Z,54.50
2019-04-23T20:22:00.247Z,54.70
2019-04-23T20:27:06.123Z,54.60
2019-04-23T20:32:15.344Z,55.50
2019-04-23T20:37:12.650Z,56.30
2019-04-23T20:39:40.103Z,57.00
2019-04-23T20:44:57.201Z,57.80
2019-04-23T20:47:15.598Z,56.60
2019-04-23T20:49:43.185Z,56.70
2019-04-23T20:54:50.956Z,66.50
2019-04-23T21:00:02.051Z,56.50
2019-04-23T21:02:54.761Z,58.50
2019-04-23T21:07:49.022Z,56.10
2019-04-23T21:12:51.042Z,55.70
2019-04-23T21:15:12.041Z,57.00
2019-04-23T21:17:47.537Z,56.00
2019-04-23T21:20:21.226Z,56.80
2019-04-23T21:22:32.125Z,57.50
2019-04-23T21:25:01.786Z,58.00
2019-04-23T21:27:48.695Z,57.20
2019-04-23T21:30:03.821Z,58.00
2019-04-23T21:43:20.617Z,57.70
2019-04-23T21:45:50.044Z,58.60
2019-04-23T21:48:15.682Z,57.30
2019-04-23T21:53:18.393Z,57.30
2019-04-23T21:55:53.778Z,57.60
2019-04-23T21:58:19.316Z,59.50
2019-04-23T22:00:51.933Z,58.60
2019-04-23T22:03:19.543Z,60.10
2019-04-23T22:05:49.485Z,61.00
2019-04-23T22:08:05.808Z,59.50
2019-04-23T22:10:57.439Z,61.10
2019-04-23T22:13:20.638Z,61.10
2019-04-23T22:18:14.352Z,61.20
2019-04-23T22:20:56.309Z,59.80
2019-04-23T22:23:24.452Z,62.20
2019-04-23T22:25:56.476Z,62.40
2019-04-23T22:28:18.125Z,62.60
2019-04-23T22:31:14.760Z,61.30
2019-04-23T22:33:18.057Z,60.60
2019-04-23T22:38:22.659Z,63.20
2019-04-23T22:40:49.897Z,62.30
2019-04-23T22:45:59.908Z,63.70
2019-04-23T22:48:13.846Z,61.80
2019-04-23T22:50:56.707Z,62.20
2019-04-23T22:53:13.877Z,61.80
2019-04-23T22:55:57.312Z,63.60
2019-04-23T22:58:31.693Z,61.90
2019-04-23T23:00:55.278Z,62.30
2019-04-23T23:03:27.691Z,63.30
2019-04-23T23:10:57.513Z,62.10
2019-04-23T23:13:35.442Z,61.70
2019-04-23T23:16:03.517Z,63.10
2019-04-23T23:18:28.060Z,65.10
2019-04-23T23:23:29.769Z,65.80
2019-04-23T23:26:06.706Z,66.90
2019-04-23T23:28:28.673Z,67.50
2019-04-23T23:31:04.093Z,65.30
2019-04-23T23:36:00.134Z,69.10
2019-04-23T23:38:33.648Z,66.80
2019-04-23T23:41:12.327Z,66.90
2019-04-23T23:46:15.223Z,67.30
2019-04-23T23:48:29.161Z,68.80
2019-04-23T23:51:18.825Z,66.80
2019-04-23T23:53:42.840Z,67.90
2019-04-23T23:56:04.829Z,67.40
2019-04-23T23:58:41.095Z,68.90
